map of KBUY home
Great Circle Mapper logo
KBUY - Airport
Location
City:  Burlington, North Carolina, United States
Name:Burlington-Alamance Regional
ICAO:KBUY
FAA:BUY

Details
Type:Airport (Airfield)
Use:Public/Civil
Latitude:3602'59"N (36.049728)
Longitude:7928'23"W (-79.473009)
Datum:WGS 1984
Elevation:616 ft (188 m)
Variation:8.67W (WMM2015 magnetic declination)
-0.04 annual change
Runways:1
Longest:6405 × 100 ft (1952 × 30.5 m), paved

Time
Time Zone:UTC-5 (DST-4)
Local Time:

Weather
METAR:KBUY 272354Z AUTO 32008G16KT 10SM CLR 15/M01 A2987 RMK AO2 SLP114 T01501011 10200 20150 53018

Related Locations
Nearby:
Farthest:MGV: 11605 mi / 18676 km
Margaret River, WA, AU

Find:

   beyond  
but within

Other Information
Maps:
NOTAMs:
Links:
Sources:

  
flag of United States
flag of North Carolina
  

Sectional Chart

Flight Planning
at skyvector.com

Satellite Image

Google Maps Satellite View

 

Copyright © 2004-2015 Karl L. Swartz. All rights reserved.
The Great Circle Mapper name and logo are trademarks of the Great Circle Mapper.
All other trademarks mentioned herein belong to their respective owners.
Please see credits for attibutions and further copyright information.

  Follow gcmap on Facebook Follow gcmap on Twitter Follow gcmap on Google+

hCard Microformat

Geo Microformat